Airfield :
LOGIN :

Register | Disclaimer

   EN    FR    IT 

 










Legend :    VFR   Marginal VFR   IFR   Intensive IFR   Very Intensive IFR
Visi :
Ceiling :
>= 8 km
>= 3000ft
5 to 8 km
1000 to 3000 ft
1500m to 5 km
500 to 1000 ft
800 to 1500m
200 to 500 ft
< 800m
< 200 ft
Symbols :   Thunderstorms  Fog  Heavy snow  Heavy precipitations  Wind > 20 kt
SIGMETs :     Misc.  Thunderstorms  Icing  Turbulence  Mountain Waves  Volcanic Ashes







- Airport Elevation : 1046 ft
- IATA code : NUE


EDDN - Nuremberg

CURRENT METAR :
  • 211650Z 01004KT 340V040 9999 SCT008 BKN100 19/17 Q1012 NOSIG

EXPIRED METARs :
  • 211620Z 36004KT 320V040 9999 SCT008 BKN110 19/17 Q1012 NOSIG
  • 211550Z 35005KT 9999 -RA FEW007 SCT010 BKN070 19/16 Q1013 NOSIG
  • 211520Z 01003KT 330V050 9999 -RA SCT007 OVC080 19/17 Q1013 NOSIG
  • 211450Z 35004KT 9999 -RA SCT007 OVC060 19/17 Q1013 NOSIG
  • 211420Z 01004KT 320V050 9999 -RA BKN007 BKN070 19/17 Q1013 BECMG SCT006

TAF COR TAF EDDN
Valid from the 21 at 12:00 until the 22 at 12:00 UTC


211139Z 2112/2212 30006KT 9999 SCT013 BKN030
PROB30
TEMPO 2112/2118 32015KT 4000 TSRA BKN008 BKN020CB
BECMG 2118/2120 VRB03KT
PROB30
TEMPO 2123/2206 4000 RA BKN008
BECMG 2208/2210 30006KT
No reported NOTAMs for that airfield.



MET'MAP, your aeronautical weather chart ! - Copyright ORBIFLY December 2007 - Disclaimer

ORBIFLY MET'MAP TEAM :

Programming & Development : Alexandra Zaïnal
Concept & Development : Baudouin d'Aumeries
Co-Development & Prog : Marc-Olivier Méhu
Technical & hardware support : Manuel Goepfert

Contact : metmap@orbifly.com




SOURCES & CREDITS :

   NOAA